Time;durP1;ratioP1;P1;durP2;ratioP2;P2;SDS_P1;SDS_P2;PMS_P1;PMS_P2;Temp;Humidity;BMP_temperature;BMP_pressure;BME280_temperature;BME280_humidity;BME280_pressure;Samples;Min_cycle;Max_cycle;Signal;HPM_P1;HPM_P2
2023/09/30 00:02:17;;;;;;;9.70;6.63;;;;;;;;;;5057420;28;20673;-65
2023/09/30 00:04:44;;;;;;;12.73;7.45;;;;;;;;;;5057224;28;20299;-65
2023/09/30 00:07:12;;;;;;;10.45;7.03;;;;;;;;;;5057494;28;20294;-65
2023/09/30 00:09:40;;;;;;;10.70;7.15;;;;;;;;;;5057501;28;20217;-65
2023/09/30 00:12:08;;;;;;;11.27;7.30;;;;;;;;;;5056578;28;20209;-65
2023/09/30 00:14:37;;;;;;;12.02;7.28;;;;;;;;;;5057277;28;20475;-65
2023/09/30 00:17:04;;;;;;;9.90;6.82;;;;;;;;;;5057850;28;20533;-65
2023/09/30 00:19:33;;;;;;;11.80;7.53;;;;;;;;;;5059747;28;20200;-65
2023/09/30 00:22:01;;;;;;;11.48;8.02;;;;;;;;;;5061356;28;20288;-65
2023/09/30 00:24:28;;;;;;;11.63;7.50;;;;;;;;;;5061188;28;20287;-65
2023/09/30 00:26:56;;;;;;;11.18;7.57;;;;;;;;;;5061307;28;20225;-65
2023/09/30 00:29:23;;;;;;;12.02;7.50;;;;;;;;;;5061072;28;20299;-65
2023/09/30 00:31:51;;;;;;;11.65;7.30;;;;;;;;;;5061273;28;20299;-65
2023/09/30 00:34:18;;;;;;;12.00;7.75;;;;;;;;;;5061028;28;20331;-65
2023/09/30 00:36:48;;;;;;;12.27;8.07;;;;;;;;;;5060901;28;20295;-65
2023/09/30 00:39:15;;;;;;;12.50;7.95;;;;;;;;;;5061327;28;20575;-65
2023/09/30 00:41:43;;;;;;;12.25;7.85;;;;;;;;;;5061125;28;20205;-65
2023/09/30 00:44:10;;;;;;;11.10;7.25;;;;;;;;;;5061003;28;20270;-65
2023/09/30 00:46:39;;;;;;;13.13;7.97;;;;;;;;;;5060769;28;20291;-65
2023/09/30 00:49:07;;;;;;;11.73;7.50;;;;;;;;;;5061042;28;20255;-65
2023/09/30 00:51:35;;;;;;;11.50;7.13;;;;;;;;;;5061039;28;20295;-65
2023/09/30 00:54:05;;;;;;;10.35;6.88;;;;;;;;;;5061290;28;20295;-65
2023/09/30 00:56:34;;;;;;;10.30;6.85;;;;;;;;;;5061483;28;20227;-65
2023/09/30 00:59:02;;;;;;;9.48;6.85;;;;;;;;;;5061080;28;20200;-65
2023/09/30 01:01:31;;;;;;;9.90;6.25;;;;;;;;;;5061515;28;20539;-65
2023/09/30 01:03:59;;;;;;;9.60;6.20;;;;;;;;;;5060868;28;20255;-65
2023/09/30 01:06:26;;;;;;;9.63;6.32;;;;;;;;;;5061143;28;20212;-65
2023/09/30 01:08:54;;;;;;;8.93;6.07;;;;;;;;;;5060555;28;20235;-65
2023/09/30 01:11:23;;;;;;;8.90;6.10;;;;;;;;;;5060235;28;20247;-65
2023/09/30 01:13:51;;;;;;;9.20;6.20;;;;;;;;;;5060319;28;20299;-65
2023/09/30 01:16:18;;;;;;;9.38;6.07;;;;;;;;;;5060913;28;20205;-65
2023/09/30 01:18:46;;;;;;;10.00;6.68;;;;;;;;;;5060364;28;20280;-65
2023/09/30 01:21:13;;;;;;;7.75;5.55;;;;;;;;;;5060490;28;20254;-65
2023/09/30 01:23:43;;;;;;;8.85;5.93;;;;;;;;;;5060452;28;20200;-65
2023/09/30 01:26:13;;;;;;;9.50;6.05;;;;;;;;;;5060714;28;20208;-65
2023/09/30 01:28:41;;;;;;;9.35;5.80;;;;;;;;;;5060198;28;20328;-65
2023/09/30 01:31:08;;;;;;;8.55;5.63;;;;;;;;;;5058455;28;20251;-65
2023/09/30 01:33:36;;;;;;;8.38;5.72;;;;;;;;;;5059493;28;20571;-65
2023/09/30 01:36:03;;;;;;;7.93;5.35;;;;;;;;;;5059960;28;20213;-65
2023/09/30 01:38:31;;;;;;;8.73;5.93;;;;;;;;;;5060108;28;20201;-65
2023/09/30 01:41:00;;;;;;;8.57;5.60;;;;;;;;;;5060378;28;20209;-65
2023/09/30 01:43:28;;;;;;;9.45;5.78;;;;;;;;;;5059913;28;20297;-65
2023/09/30 01:45:55;;;;;;;8.82;5.82;;;;;;;;;;5060239;28;20300;-65
2023/09/30 01:48:22;;;;;;;8.45;5.60;;;;;;;;;;5059755;28;20315;-65
2023/09/30 01:50:50;;;;;;;7.60;5.05;;;;;;;;;;5059867;28;20295;-65
2023/09/30 01:53:18;;;;;;;8.55;5.72;;;;;;;;;;5059566;28;20209;-65
2023/09/30 01:55:45;;;;;;;6.75;4.90;;;;;;;;;;5059991;28;20235;-65
2023/09/30 01:58:14;;;;;;;7.45;4.78;;;;;;;;;;5059678;28;20299;-65
2023/09/30 02:00:42;;;;;;;7.18;4.93;;;;;;;;;;5059527;28;20205;-65
2023/09/30 02:03:09;;;;;;;7.03;4.93;;;;;;;;;;5059725;28;20271;-65
2023/09/30 02:05:38;;;;;;;8.13;5.10;;;;;;;;;;5059839;28;20300;-65
2023/09/30 02:08:06;;;;;;;7.45;5.03;;;;;;;;;;5059294;28;20254;-65
2023/09/30 02:10:34;;;;;;;7.63;4.90;;;;;;;;;;5059389;28;20576;-65
2023/09/30 02:13:01;;;;;;;6.93;4.72;;;;;;;;;;5059346;28;20205;-65
2023/09/30 02:15:30;;;;;;;6.40;4.63;;;;;;;;;;5059910;28;20205;-65
2023/09/30 02:18:00;;;;;;;7.00;4.50;;;;;;;;;;5059341;28;20212;-65
2023/09/30 02:20:30;;;;;;;6.45;4.50;;;;;;;;;;5059212;28;20212;-65
2023/09/30 02:22:58;;;;;;;6.85;4.57;;;;;;;;;;5059487;28;20493;-65
2023/09/30 02:25:26;;;;;;;6.40;4.47;;;;;;;;;;5059242;28;20228;-65
2023/09/30 02:27:54;;;;;;;6.45;4.68;;;;;;;;;;5058636;28;20311;-65
2023/09/30 02:30:21;;;;;;;6.57;4.45;;;;;;;;;;5058734;28;20212;-65
2023/09/30 02:32:50;;;;;;;6.40;4.20;;;;;;;;;;5059396;28;20560;-65
2023/09/30 02:35:19;;;;;;;7.03;4.70;;;;;;;;;;5059262;28;20267;-65
2023/09/30 02:37:46;;;;;;;5.78;4.38;;;;;;;;;;5058741;28;20209;-65
2023/09/30 02:40:14;;;;;;;6.03;4.38;;;;;;;;;;5058608;28;20205;-65
2023/09/30 02:42:42;;;;;;;5.38;4.30;;;;;;;;;;5058373;28;20215;-65
2023/09/30 02:45:11;;;;;;;5.80;4.10;;;;;;;;;;5058716;28;20679;-65
2023/09/30 02:47:39;;;;;;;5.60;3.90;;;;;;;;;;5058453;28;20327;-65
2023/09/30 02:50:11;;;;;;;5.65;4.03;;;;;;;;;;5058645;28;20212;-65
2023/09/30 02:52:40;;;;;;;6.68;4.35;;;;;;;;;;5058891;28;20769;-65
2023/09/30 02:55:08;;;;;;;5.72;3.90;;;;;;;;;;5058749;28;20219;-65
2023/09/30 02:57:36;;;;;;;5.38;3.95;;;;;;;;;;5058685;28;20472;-65
2023/09/30 03:00:13;;;;;;;4.70;3.40;;;;;;;;;;5058724;28;20484;-65
2023/09/30 03:02:41;;;;;;;5.10;3.58;;;;;;;;;;5058645;28;20205;-65
2023/09/30 03:05:11;;;;;;;5.25;3.83;;;;;;;;;;5058781;28;20281;-65
2023/09/30 03:07:41;;;;;;;4.95;3.65;;;;;;;;;;5058681;28;20522;-65
2023/09/30 03:10:09;;;;;;;4.68;3.58;;;;;;;;;;5058510;28;20209;-65
2023/09/30 03:12:36;;;;;;;5.68;3.70;;;;;;;;;;5058248;28;20464;-65
2023/09/30 03:15:04;;;;;;;6.35;3.78;;;;;;;;;;5058627;28;20524;-65
2023/09/30 03:17:31;;;;;;;5.70;3.63;;;;;;;;;;5058616;28;20295;-65
2023/09/30 03:19:59;;;;;;;4.88;3.40;;;;;;;;;;5058199;28;20208;-65
2023/09/30 03:22:28;;;;;;;5.05;3.63;;;;;;;;;;5058103;28;20312;-65
2023/09/30 03:24:57;;;;;;;4.43;3.30;;;;;;;;;;5058061;28;20204;-65
2023/09/30 03:27:24;;;;;;;4.65;3.30;;;;;;;;;;5058126;28;20205;-65
2023/09/30 03:29:53;;;;;;;5.05;3.42;;;;;;;;;;5058069;28;20201;-65
2023/09/30 03:32:20;;;;;;;4.75;3.60;;;;;;;;;;5058388;28;20231;-65
2023/09/30 03:34:49;;;;;;;4.53;3.03;;;;;;;;;;5057991;28;20287;-65
2023/09/30 03:37:16;;;;;;;4.45;3.22;;;;;;;;;;5058163;28;20213;-65
2023/09/30 03:39:49;;;;;;;4.60;3.38;;;;;;;;;;5057761;28;20296;-65
2023/09/30 03:42:16;;;;;;;4.25;3.15;;;;;;;;;;5057510;28;20231;-65
2023/09/30 03:44:44;;;;;;;3.88;2.97;;;;;;;;;;5058003;28;20495;-65
2023/09/30 03:47:11;;;;;;;4.75;3.00;;;;;;;;;;5057555;28;20212;-65
2023/09/30 03:49:39;;;;;;;4.70;3.47;;;;;;;;;;5057758;28;20233;-65
2023/09/30 03:52:08;;;;;;;4.28;3.00;;;;;;;;;;5057877;28;20209;-65
2023/09/30 03:54:35;;;;;;;4.32;3.15;;;;;;;;;;5056995;28;20211;-65
2023/09/30 03:57:04;;;;;;;4.38;2.90;;;;;;;;;;5057776;28;20299;-65
2023/09/30 03:59:32;;;;;;;3.88;2.90;;;;;;;;;;5057863;28;20209;-65
2023/09/30 04:01:59;;;;;;;4.40;2.95;;;;;;;;;;5057671;28;20262;-65
2023/09/30 04:04:27;;;;;;;3.67;2.70;;;;;;;;;;5057434;28;20209;-65
2023/09/30 04:06:54;;;;;;;3.25;2.58;;;;;;;;;;5057205;28;20272;-65
2023/09/30 04:09:22;;;;;;;3.90;2.70;;;;;;;;;;5057198;28;20237;-65
2023/09/30 04:11:49;;;;;;;3.53;2.50;;;;;;;;;;5056922;28;20579;-65
2023/09/30 04:14:18;;;;;;;4.22;2.95;;;;;;;;;;5057570;28;20205;-65
2023/09/30 04:16:46;;;;;;;3.70;2.72;;;;;;;;;;5056925;28;20205;-65
2023/09/30 04:19:13;;;;;;;4.10;2.90;;;;;;;;;;5057863;28;20548;-65
2023/09/30 04:21:41;;;;;;;3.30;2.60;;;;;;;;;;5057041;28;20483;-65
2023/09/30 04:24:09;;;;;;;3.97;2.90;;;;;;;;;;5057174;28;20640;-65
2023/09/30 04:26:36;;;;;;;3.40;2.70;;;;;;;;;;5057369;28;20303;-65
2023/09/30 04:29:10;;;;;;;3.95;2.80;;;;;;;;;;5057196;28;20640;-65
2023/09/30 04:31:41;;;;;;;3.55;2.55;;;;;;;;;;5057177;28;20205;-65
2023/09/30 04:34:09;;;;;;;3.83;2.60;;;;;;;;;;5057115;28;20327;-65
2023/09/30 04:36:36;;;;;;;3.40;2.47;;;;;;;;;;5057487;28;20278;-65
2023/09/30 04:39:05;;;;;;;3.50;2.72;;;;;;;;;;5057425;28;20266;-65
2023/09/30 04:41:32;;;;;;;3.63;2.50;;;;;;;;;;5057322;28;20260;-65
2023/09/30 04:44:00;;;;;;;3.30;2.30;;;;;;;;;;5056918;28;20283;-65
2023/09/30 04:46:27;;;;;;;3.05;2.40;;;;;;;;;;5057250;28;20295;-65
2023/09/30 04:48:56;;;;;;;2.70;2.13;;;;;;;;;;5057116;28;20236;-65
2023/09/30 04:51:25;;;;;;;3.08;2.40;;;;;;;;;;5057258;28;20498;-65
2023/09/30 04:53:54;;;;;;;3.08;2.50;;;;;;;;;;5056706;28;20205;-65
2023/09/30 04:56:23;;;;;;;3.42;2.47;;;;;;;;;;5056840;28;20223;-65
2023/09/30 04:58:50;;;;;;;3.53;2.53;;;;;;;;;;5056723;28;20197;-65
2023/09/30 05:01:18;;;;;;;3.85;2.58;;;;;;;;;;5056877;28;20299;-65
2023/09/30 05:03:48;;;;;;;3.28;2.30;;;;;;;;;;5057316;28;20213;-65
2023/09/30 05:06:18;;;;;;;3.03;2.30;;;;;;;;;;5058677;28;20486;-65
2023/09/30 05:08:45;;;;;;;2.95;2.38;;;;;;;;;;5060948;28;20224;-65
2023/09/30 05:11:12;;;;;;;2.78;2.05;;;;;;;;;;5060684;28;20287;-65
2023/09/30 05:13:40;;;;;;;3.20;2.55;;;;;;;;;;5061062;28;20331;-65
2023/09/30 05:16:07;;;;;;;2.88;1.95;;;;;;;;;;5060851;28;20262;-65
2023/09/30 05:18:35;;;;;;;2.30;1.95;;;;;;;;;;5060260;28;20201;-65
2023/09/30 05:21:02;;;;;;;2.30;2.10;;;;;;;;;;5059969;28;20311;-65
2023/09/30 05:23:32;;;;;;;3.03;2.30;;;;;;;;;;5060712;28;20209;-65
2023/09/30 05:26:00;;;;;;;3.10;2.30;;;;;;;;;;5060309;28;20215;-65
2023/09/30 05:28:28;;;;;;;3.08;2.40;;;;;;;;;;5060344;28;20225;-65
2023/09/30 05:30:55;;;;;;;3.00;2.40;;;;;;;;;;5059940;28;20216;-65
2023/09/30 05:33:23;;;;;;;2.10;1.75;;;;;;;;;;5059933;28;20245;-65
2023/09/30 05:35:51;;;;;;;2.65;2.05;;;;;;;;;;5059253;28;20263;-65
2023/09/30 05:38:20;;;;;;;2.63;2.13;;;;;;;;;;5060352;28;20270;-65
2023/09/30 05:40:49;;;;;;;2.65;1.92;;;;;;;;;;5060071;28;20215;-65
2023/09/30 05:43:17;;;;;;;2.25;1.98;;;;;;;;;;5060223;28;20476;-65
2023/09/30 05:45:49;;;;;;;2.88;2.00;;;;;;;;;;5059864;28;20205;-65
2023/09/30 05:48:17;;;;;;;2.90;2.03;;;;;;;;;;5059525;28;20270;-65
2023/09/30 05:50:44;;;;;;;3.75;2.15;;;;;;;;;;5059579;28;20204;-65
2023/09/30 05:53:12;;;;;;;2.83;2.08;;;;;;;;;;5058978;28;20216;-65
2023/09/30 05:55:42;;;;;;;2.60;2.08;;;;;;;;;;5059250;28;20228;-65
2023/09/30 05:58:13;;;;;;;2.65;1.90;;;;;;;;;;5059638;28;20236;-65
2023/09/30 06:00:41;;;;;;;2.38;1.88;;;;;;;;;;5059366;28;20209;-65
2023/09/30 06:03:10;;;;;;;2.95;2.10;;;;;;;;;;5059796;28;20201;-65
2023/09/30 06:05:40;;;;;;;2.25;1.77;;;;;;;;;;5058611;28;20216;-65
2023/09/30 06:08:10;;;;;;;3.33;2.20;;;;;;;;;;5059633;28;20350;-65
2023/09/30 06:10:42;;;;;;;2.55;2.00;;;;;;;;;;5059368;28;20236;-65
2023/09/30 06:13:11;;;;;;;2.70;2.20;;;;;;;;;;5059327;28;20205;-65
2023/09/30 06:15:41;;;;;;;2.72;1.92;;;;;;;;;;5059402;28;20200;-65
2023/09/30 06:18:09;;;;;;;2.47;2.00;;;;;;;;;;5058595;28;20205;-65
2023/09/30 06:20:37;;;;;;;2.55;1.85;;;;;;;;;;5059500;28;20201;-65
2023/09/30 06:23:04;;;;;;;2.63;1.80;;;;;;;;;;5058776;28;20595;-65
2023/09/30 06:25:33;;;;;;;2.00;1.80;;;;;;;;;;5058707;28;20343;-65
2023/09/30 06:28:00;;;;;;;2.42;1.92;;;;;;;;;;5059018;28;20363;-65
2023/09/30 06:30:30;;;;;;;2.80;2.03;;;;;;;;;;5058545;28;20240;-65
2023/09/30 06:32:59;;;;;;;2.50;1.85;;;;;;;;;;5058471;28;20248;-65
2023/09/30 06:35:27;;;;;;;2.17;1.85;;;;;;;;;;5059037;28;20215;-65
2023/09/30 06:37:54;;;;;;;3.47;1.88;;;;;;;;;;5059110;28;20212;-65
2023/09/30 06:40:23;;;;;;;1.90;1.52;;;;;;;;;;5058114;28;20205;-65
2023/09/30 06:42:51;;;;;;;2.20;1.60;;;;;;;;;;5058734;28;20304;-65
2023/09/30 06:45:19;;;;;;;2.67;1.75;;;;;;;;;;5058226;28;20482;-65
2023/09/30 06:47:48;;;;;;;1.85;1.65;;;;;;;;;;5057907;28;20205;-65
2023/09/30 06:50:16;;;;;;;1.98;1.70;;;;;;;;;;5057849;28;20327;-65
2023/09/30 06:52:47;;;;;;;2.65;2.00;;;;;;;;;;5057487;28;20213;-65
2023/09/30 06:55:16;;;;;;;2.65;1.80;;;;;;;;;;5058566;28;20205;-65
2023/09/30 06:57:44;;;;;;;2.58;1.80;;;;;;;;;;5057761;28;20211;-65
2023/09/30 07:00:12;;;;;;;2.80;2.00;;;;;;;;;;5058096;28;20299;-65
2023/09/30 07:02:41;;;;;;;2.92;1.92;;;;;;;;;;5057662;28;20209;-65
2023/09/30 07:05:11;;;;;;;2.00;1.58;;;;;;;;;;5057286;28;20204;-65
2023/09/30 07:07:39;;;;;;;1.80;1.70;;;;;;;;;;5056940;28;20205;-65
2023/09/30 07:10:07;;;;;;;2.33;1.60;;;;;;;;;;5056769;28;20243;-65
2023/09/30 07:12:35;;;;;;;1.88;1.60;;;;;;;;;;5056647;28;20303;-65
2023/09/30 07:15:03;;;;;;;2.38;1.65;;;;;;;;;;5056441;28;20205;-65
2023/09/30 07:17:30;;;;;;;3.35;1.80;;;;;;;;;;5056809;28;20204;-65
2023/09/30 07:19:59;;;;;;;3.15;1.80;;;;;;;;;;5057526;28;20219;-65
2023/09/30 07:22:28;;;;;;;3.03;1.83;;;;;;;;;;5056997;28;20572;-65
2023/09/30 07:24:55;;;;;;;2.33;1.77;;;;;;;;;;5056887;28;20201;-65
2023/09/30 07:27:23;;;;;;;2.20;1.60;;;;;;;;;;5057766;28;20213;-65
2023/09/30 07:29:50;;;;;;;2.92;1.77;;;;;;;;;;5056400;28;20327;-65
2023/09/30 07:32:18;;;;;;;1.70;1.40;;;;;;;;;;5057583;28;20205;-65
2023/09/30 07:34:45;;;;;;;2.13;1.48;;;;;;;;;;5057285;28;20268;-65
2023/09/30 07:37:14;;;;;;;2.45;1.65;;;;;;;;;;5057145;28;20299;-65
2023/09/30 07:39:43;;;;;;;2.33;1.67;;;;;;;;;;5057167;28;20251;-65
2023/09/30 07:42:11;;;;;;;2.40;1.50;;;;;;;;;;5057307;28;20312;-65
2023/09/30 07:44:38;;;;;;;2.05;1.60;;;;;;;;;;5056802;28;20231;-65
2023/09/30 07:47:06;;;;;;;2.92;1.50;;;;;;;;;;5056814;28;20307;-65
2023/09/30 07:49:34;;;;;;;2.33;1.60;;;;;;;;;;5056520;28;20225;-65
2023/09/30 07:52:03;;;;;;;2.60;1.80;;;;;;;;;;5056299;28;20262;-65
2023/09/30 07:54:31;;;;;;;2.63;1.73;;;;;;;;;;5056957;28;20220;-65
2023/09/30 07:57:00;;;;;;;2.17;1.33;;;;;;;;;;5056621;28;20205;-65
2023/09/30 07:59:27;;;;;;;2.03;1.60;;;;;;;;;;5055945;28;20237;-65
2023/09/30 08:01:54;;;;;;;2.60;1.63;;;;;;;;;;5055603;28;20271;-65
2023/09/30 08:04:23;;;;;;;2.33;1.58;;;;;;;;;;5055453;28;20296;-65
2023/09/30 08:06:50;;;;;;;1.75;1.42;;;;;;;;;;5056892;28;20339;-65
2023/09/30 08:09:18;;;;;;;1.83;1.40;;;;;;;;;;5055797;28;20235;-65
2023/09/30 08:11:45;;;;;;;2.85;1.63;;;;;;;;;;5055899;28;20654;-65
2023/09/30 08:14:15;;;;;;;2.30;1.45;;;;;;;;;;5055707;28;20550;-65
2023/09/30 08:16:42;;;;;;;3.88;1.73;;;;;;;;;;5055628;28;20264;-65
2023/09/30 08:19:10;;;;;;;2.45;1.60;;;;;;;;;;5056085;28;20840;-65
2023/09/30 08:21:37;;;;;;;1.92;1.40;;;;;;;;;;5055873;28;20205;-65
2023/09/30 08:24:05;;;;;;;4.05;1.70;;;;;;;;;;5055408;28;20204;-65
2023/09/30 08:26:33;;;;;;;3.55;1.50;;;;;;;;;;5055222;28;20209;-65
2023/09/30 08:29:01;;;;;;;2.15;1.50;;;;;;;;;;5054779;28;20223;-65
2023/09/30 08:31:30;;;;;;;2.97;1.67;;;;;;;;;;5055336;28;20250;-65
2023/09/30 08:33:57;;;;;;;3.05;1.60;;;;;;;;;;5055407;28;20229;-65
2023/09/30 08:36:25;;;;;;;2.40;1.50;;;;;;;;;;5055233;28;20783;-65
2023/09/30 08:38:52;;;;;;;2.92;1.55;;;;;;;;;;5055462;28;20295;-65
2023/09/30 08:41:26;;;;;;;4.93;1.70;;;;;;;;;;5058964;28;20274;-65
2023/09/30 08:43:57;;;;;;;2.78;1.50;;;;;;;;;;5058380;28;20204;-65
2023/09/30 08:46:26;;;;;;;3.22;1.70;;;;;;;;;;5059046;28;20312;-65
2023/09/30 08:48:55;;;;;;;1.48;1.20;;;;;;;;;;5059662;28;20212;-65
2023/09/30 08:51:23;;;;;;;2.25;1.50;;;;;;;;;;5059070;28;20291;-65
2023/09/30 08:53:51;;;;;;;1.90;1.38;;;;;;;;;;5058528;28;20235;-65
2023/09/30 08:56:20;;;;;;;1.90;1.60;;;;;;;;;;5058505;28;20212;-65
2023/09/30 08:58:48;;;;;;;1.95;1.50;;;;;;;;;;5058160;28;20228;-65
2023/09/30 09:01:15;;;;;;;2.08;1.60;;;;;;;;;;5058383;28;20243;-65
2023/09/30 09:03:43;;;;;;;2.08;1.30;;;;;;;;;;5058908;28;20264;-65
2023/09/30 09:06:12;;;;;;;2.92;1.70;;;;;;;;;;5058332;28;20586;-65
2023/09/30 09:08:41;;;;;;;3.30;1.90;;;;;;;;;;5058547;28;20228;-65
2023/09/30 09:11:09;;;;;;;1.77;1.40;;;;;;;;;;5058157;28;20235;-65
2023/09/30 09:13:49;;;;;;;2.65;1.55;;;;;;;;;;5058850;28;20288;-65
2023/09/30 09:16:16;;;;;;;1.90;1.70;;;;;;;;;;5058299;28;20212;-65
2023/09/30 09:18:44;;;;;;;2.63;1.63;;;;;;;;;;5058106;28;20262;-65
2023/09/30 09:21:13;;;;;;;2.97;1.52;;;;;;;;;;5058443;28;20630;-65
2023/09/30 09:23:42;;;;;;;3.17;1.52;;;;;;;;;;5058733;28;20508;-65
2023/09/30 09:26:10;;;;;;;2.55;1.50;;;;;;;;;;5059611;28;20513;-65
2023/09/30 09:28:39;;;;;;;2.45;1.60;;;;;;;;;;5058711;28;20304;-65
2023/09/30 09:31:22;;;;;;;2.90;1.70;;;;;;;;;;5058114;28;20487;-65
2023/09/30 09:33:50;;;;;;;2.67;1.40;;;;;;;;;;5055519;28;20229;-65
2023/09/30 09:36:19;;;;;;;2.80;1.50;;;;;;;;;;5058622;28;20568;-65
2023/09/30 09:38:49;;;;;;;3.10;1.58;;;;;;;;;;5058236;28;20205;-65
2023/09/30 09:41:17;;;;;;;2.88;1.75;;;;;;;;;;5057386;28;20608;-65
2023/09/30 09:43:45;;;;;;;4.07;1.85;;;;;;;;;;5057699;28;20569;-65
2023/09/30 09:46:13;;;;;;;3.78;1.95;;;;;;;;;;5057689;28;20587;-65
2023/09/30 09:48:41;;;;;;;3.50;1.48;;;;;;;;;;5057699;28;20502;-65
2023/09/30 09:51:12;;;;;;;2.80;1.52;;;;;;;;;;5057306;28;20321;-65
2023/09/30 09:53:43;;;;;;;4.88;1.83;;;;;;;;;;5047163;28;20217;-65
2023/09/30 09:56:11;;;;;;;2.75;1.60;;;;;;;;;;5040981;28;20224;-65
2023/09/30 09:58:40;;;;;;;3.60;2.00;;;;;;;;;;5043444;28;20275;-65
2023/09/30 10:01:09;;;;;;;5.13;1.95;;;;;;;;;;5037180;28;20205;-65
2023/09/30 10:03:37;;;;;;;3.05;1.92;;;;;;;;;;5037618;28;20268;-65
2023/09/30 10:06:05;;;;;;;3.15;1.80;;;;;;;;;;5037737;28;20297;-65
2023/09/30 10:08:35;;;;;;;3.55;1.90;;;;;;;;;;5051999;28;20201;-65
2023/09/30 10:11:04;;;;;;;2.20;1.42;;;;;;;;;;5057822;28;20327;-65
2023/09/30 10:13:50;;;;;;;3.35;1.90;;;;;;;;;;5057370;28;20266;-65
2023/09/30 10:16:36;;;;;;;3.55;1.80;;;;;;;;;;5057443;28;20709;-65
2023/09/30 10:19:10;;;;;;;4.72;1.98;;;;;;;;;;5057154;28;20649;-65
2023/09/30 10:21:38;;;;;;;2.45;1.40;;;;;;;;;;5056710;28;20549;-65
2023/09/30 10:24:20;;;;;;;3.88;2.00;;;;;;;;;;5057029;28;20248;-65
2023/09/30 10:27:07;;;;;;;3.38;1.80;;;;;;;;;;5057216;28;20267;-65
2023/09/30 10:29:41;;;;;;;2.50;1.73;;;;;;;;;;5056953;28;20201;-65
2023/09/30 10:32:09;;;;;;;3.88;1.98;;;;;;;;;;5056810;28;20197;-65
2023/09/30 10:34:36;;;;;;;2.25;1.60;;;;;;;;;;5056349;28;20339;-65
2023/09/30 10:37:18;;;;;;;3.72;2.00;;;;;;;;;;5056839;28;20308;-65
2023/09/30 10:39:56;;;;;;;3.30;2.00;;;;;;;;;;5057249;28;20672;-65
2023/09/30 10:42:38;;;;;;;2.30;1.60;;;;;;;;;;5057246;28;20657;-65
2023/09/30 10:45:08;;;;;;;2.42;1.60;;;;;;;;;;5056465;28;20223;-65
2023/09/30 10:47:41;;;;;;;3.00;2.00;;;;;;;;;;5056863;28;20556;-65
2023/09/30 10:50:23;;;;;;;2.70;1.73;;;;;;;;;;5057255;28;20217;-65
2023/09/30 10:52:50;;;;;;;2.45;1.67;;;;;;;;;;5056116;28;20307;-65
2023/09/30 10:55:20;;;;;;;4.65;1.90;;;;;;;;;;5056333;28;20290;-65
2023/09/30 10:57:52;;;;;;;2.90;1.73;;;;;;;;;;5056756;28;20547;-65
2023/09/30 11:00:22;;;;;;;3.45;1.90;;;;;;;;;;5056213;28;20201;-65
2023/09/30 11:02:50;;;;;;;3.88;1.90;;;;;;;;;;5055684;28;20789;-65
2023/09/30 11:05:20;;;;;;;2.78;1.73;;;;;;;;;;5055646;28;20482;-65
2023/09/30 11:07:50;;;;;;;3.55;2.20;;;;;;;;;;5055693;28;20622;-65
2023/09/30 11:10:18;;;;;;;2.47;1.60;;;;;;;;;;5054132;28;20607;-65
2023/09/30 11:12:56;;;;;;;1.95;1.50;;;;;;;;;;5055613;28;20251;-65
2023/09/30 11:15:25;;;;;;;4.43;2.30;;;;;;;;;;5055765;28;20221;-65
2023/09/30 11:17:53;;;;;;;2.10;1.60;;;;;;;;;;5056451;28;20308;-65
2023/09/30 11:20:21;;;;;;;2.65;1.83;;;;;;;;;;5055718;28;20262;-65
2023/09/30 11:22:50;;;;;;;2.50;1.60;;;;;;;;;;5055524;28;20205;-65
2023/09/30 11:25:18;;;;;;;3.13;1.65;;;;;;;;;;5027335;28;20320;-65
2023/09/30 11:27:46;;;;;;;2.90;1.75;;;;;;;;;;5035216;28;20213;-65
2023/09/30 11:30:15;;;;;;;3.75;1.80;;;;;;;;;;5035905;28;20213;-65
2023/09/30 11:32:44;;;;;;;2.78;1.90;;;;;;;;;;5035418;28;20244;-65
2023/09/30 11:35:12;;;;;;;2.38;1.60;;;;;;;;;;5035735;28;20210;-65
2023/09/30 11:37:44;;;;;;;2.95;1.90;;;;;;;;;;5035590;28;20237;-65
2023/09/30 11:40:14;;;;;;;3.42;2.03;;;;;;;;;;5035198;28;20202;-65
2023/09/30 11:42:43;;;;;;;3.45;1.63;;;;;;;;;;5034807;28;20217;-65
2023/09/30 11:45:22;;;;;;;2.38;1.70;;;;;;;;;;5034580;28;20206;-65
2023/09/30 11:47:51;;;;;;;3.97;1.70;;;;;;;;;;5035673;28;20489;-65
2023/09/30 11:50:19;;;;;;;3.70;1.88;;;;;;;;;;5035299;28;20255;-65
2023/09/30 11:52:47;;;;;;;2.95;1.73;;;;;;;;;;5035543;28;20201;-65
2023/09/30 11:55:16;;;;;;;2.67;1.45;;;;;;;;;;5035236;28;20202;-65
2023/09/30 11:57:44;;;;;;;3.58;1.70;;;;;;;;;;5034816;28;20606;-65
2023/09/30 12:00:14;;;;;;;3.35;1.42;;;;;;;;;;5035126;28;20205;-65
2023/09/30 12:02:41;;;;;;;5.50;1.75;;;;;;;;;;5035162;28;20240;-65
2023/09/30 12:05:11;;;;;;;6.78;2.00;;;;;;;;;;5035002;28;20205;-65
2023/09/30 12:07:41;;;;;;;5.38;1.80;;;;;;;;;;5035199;28;20292;-65
2023/09/30 12:10:09;;;;;;;7.10;2.10;;;;;;;;;;5035081;28;20212;-65
2023/09/30 12:12:39;;;;;;;6.45;2.17;;;;;;;;;;5035403;28;20518;-65
2023/09/30 12:15:08;;;;;;;7.35;2.20;;;;;;;;;;5034329;28;20611;-65
2023/09/30 12:17:38;;;;;;;5.60;1.85;;;;;;;;;;5034965;28;20209;-65
2023/09/30 12:20:06;;;;;;;4.85;2.03;;;;;;;;;;5035097;28;20304;-65
2023/09/30 12:22:37;;;;;;;6.95;2.28;;;;;;;;;;5034683;28;20202;-65
2023/09/30 12:25:04;;;;;;;5.07;2.17;;;;;;;;;;5035120;28;20236;-65
2023/09/30 12:27:32;;;;;;;3.80;1.70;;;;;;;;;;5035570;28;20254;-65
2023/09/30 12:29:59;;;;;;;5.55;1.73;;;;;;;;;;5034781;28;20237;-65
2023/09/30 12:32:27;;;;;;;7.28;1.73;;;;;;;;;;5034977;28;20229;-65
2023/09/30 12:34:55;;;;;;;5.28;1.70;;;;;;;;;;5035513;28;20205;-65
2023/09/30 12:37:23;;;;;;;4.95;1.75;;;;;;;;;;5035630;28;20296;-65
2023/09/30 12:39:52;;;;;;;4.68;1.98;;;;;;;;;;5034808;28;20244;-65
2023/09/30 12:42:19;;;;;;;4.05;1.70;;;;;;;;;;5035535;28;20823;-65
2023/09/30 12:44:47;;;;;;;2.42;1.23;;;;;;;;;;5035015;28;20788;-65
2023/09/30 12:47:14;;;;;;;3.65;1.40;;;;;;;;;;5034994;28;20301;-65
2023/09/30 12:49:42;;;;;;;4.78;1.23;;;;;;;;;;5034401;28;20209;-65
2023/09/30 12:52:09;;;;;;;2.78;1.33;;;;;;;;;;5034716;28;20324;-65
2023/09/30 12:54:37;;;;;;;3.00;1.40;;;;;;;;;;5034397;28;20229;-65
2023/09/30 12:57:07;;;;;;;4.50;1.60;;;;;;;;;;5035737;28;20252;-65
2023/09/30 12:59:34;;;;;;;3.05;1.45;;;;;;;;;;5035478;28;20787;-65
2023/09/30 13:02:05;;;;;;;2.70;1.33;;;;;;;;;;5035071;28;20284;-65
2023/09/30 13:04:32;;;;;;;2.50;1.40;;;;;;;;;;5034544;28;20288;-65
2023/09/30 13:07:00;;;;;;;2.00;1.45;;;;;;;;;;5033930;28;20215;-65
2023/09/30 13:09:27;;;;;;;3.10;1.75;;;;;;;;;;5034633;28;20293;-65
2023/09/30 13:11:55;;;;;;;2.30;1.40;;;;;;;;;;5034714;28;20232;-65
2023/09/30 13:14:24;;;;;;;1.98;1.33;;;;;;;;;;5034821;28;20214;-65
2023/09/30 13:16:51;;;;;;;2.25;1.30;;;;;;;;;;5034201;28;20497;-65
2023/09/30 13:19:21;;;;;;;1.67;1.20;;;;;;;;;;5034102;28;20246;-65
2023/09/30 13:21:48;;;;;;;3.70;1.58;;;;;;;;;;5033845;28;20212;-65
2023/09/30 13:24:16;;;;;;;2.30;1.33;;;;;;;;;;5034554;28;20284;-65
2023/09/30 13:26:44;;;;;;;3.05;1.38;;;;;;;;;;5035354;28;20292;-65
2023/09/30 13:29:12;;;;;;;2.58;1.38;;;;;;;;;;5037957;28;20205;-65
2023/09/30 13:31:42;;;;;;;1.38;1.10;;;;;;;;;;5037845;28;20229;-65
2023/09/30 13:34:10;;;;;;;2.70;1.30;;;;;;;;;;5037731;28;20655;-65
2023/09/30 13:36:37;;;;;;;2.45;1.50;;;;;;;;;;5037665;28;20304;-65
2023/09/30 13:39:05;;;;;;;2.65;1.30;;;;;;;;;;5037817;28;20206;-65
2023/09/30 13:41:35;;;;;;;2.30;1.42;;;;;;;;;;5037182;28;20193;-65
2023/09/30 13:44:02;;;;;;;2.10;1.48;;;;;;;;;;5038132;28;20307;-65
2023/09/30 13:46:30;;;;;;;3.28;1.67;;;;;;;;;;5037466;28;20260;-65
2023/09/30 13:48:59;;;;;;;1.70;1.30;;;;;;;;;;5037252;28;20205;-65
2023/09/30 13:51:27;;;;;;;1.80;1.40;;;;;;;;;;5038255;28;20234;-65
2023/09/30 13:53:55;;;;;;;2.10;1.30;;;;;;;;;;5037896;28;20248;-65
2023/09/30 13:56:22;;;;;;;2.75;1.40;;;;;;;;;;5037066;28;20300;-65
2023/09/30 13:58:50;;;;;;;1.83;1.48;;;;;;;;;;5037351;28;20547;-65
2023/09/30 14:01:19;;;;;;;3.00;1.67;;;;;;;;;;5037426;28;20285;-65
2023/09/30 14:03:48;;;;;;;3.47;1.80;;;;;;;;;;5038060;28;20289;-65
2023/09/30 14:06:16;;;;;;;3.22;1.60;;;;;;;;;;5037501;28;20263;-65
2023/09/30 14:08:44;;;;;;;3.65;1.60;;;;;;;;;;5037695;28;20313;-65
2023/09/30 14:11:12;;;;;;;2.55;1.63;;;;;;;;;;5037487;28;20225;-65
2023/09/30 14:13:40;;;;;;;5.85;1.95;;;;;;;;;;5037414;28;20457;-65
2023/09/30 14:16:07;;;;;;;3.08;1.95;;;;;;;;;;5036580;28;20206;-65
2023/09/30 14:18:36;;;;;;;4.07;2.00;;;;;;;;;;5036845;28;20213;-65
2023/09/30 14:21:03;;;;;;;5.13;1.83;;;;;;;;;;5037183;28;20213;-65
2023/09/30 14:23:32;;;;;;;3.03;2.00;;;;;;;;;;5036932;28;20198;-65
2023/09/30 14:26:04;;;;;;;3.20;2.00;;;;;;;;;;5037081;28;20212;-65
2023/09/30 14:28:31;;;;;;;3.42;1.83;;;;;;;;;;5036962;28;20230;-65
2023/09/30 14:30:59;;;;;;;4.03;1.80;;;;;;;;;;5037028;28;20690;-65
2023/09/30 14:33:26;;;;;;;3.72;2.00;;;;;;;;;;5036526;28;20245;-65
2023/09/30 14:35:54;;;;;;;3.65;2.03;;;;;;;;;;5036325;28;20206;-65
2023/09/30 14:38:21;;;;;;;4.28;1.63;;;;;;;;;;5035261;28;20211;-65
2023/09/30 14:40:51;;;;;;;3.42;1.85;;;;;;;;;;5035430;28;20563;-65
2023/09/30 14:43:18;;;;;;;2.53;1.50;;;;;;;;;;5035289;28;20209;-65
2023/09/30 14:45:46;;;;;;;2.88;1.80;;;;;;;;;;5035354;28;20292;-65
2023/09/30 14:48:14;;;;;;;3.30;1.63;;;;;;;;;;5035263;28;20304;-65
2023/09/30 14:50:49;;;;;;;2.05;1.60;;;;;;;;;;5035278;28;20202;-65
2023/09/30 14:53:17;;;;;;;1.58;1.48;;;;;;;;;;5035521;28;20224;-65